Time;durP1;ratioP1;P1;durP2;ratioP2;P2;SDS_P1;SDS_P2;PMS_P1;PMS_P2;Temp;Humidity;BMP_temperature;BMP_pressure;BME280_temperature;BME280_humidity;BME280_pressure;Samples;Min_cycle;Max_cycle;Signal;HPM_P1;HPM_P2
2022/07/29 00:00:38;;;;;;;0.20;0.20;;;12.00;99.90;;;;;;5008026;28;20219;-80
2022/07/29 00:03:04;;;;;;;0.10;0.10;;;12.00;99.90;;;;;;5018997;28;20218;-80
2022/07/29 00:05:29;;;;;;;0.10;0.10;;;12.00;99.90;;;;;;5025443;28;20219;-81
2022/07/29 00:07:55;;;;;;;0.10;0.10;;;12.00;99.90;;;;;;5022485;28;20195;-81
2022/07/29 00:10:21;;;;;;;0.20;0.20;;;11.90;99.90;;;;;;5001792;28;20203;-81
2022/07/29 00:12:46;;;;;;;0.10;0.10;;;11.70;99.90;;;;;;5007585;28;20559;-81
2022/07/29 00:15:12;;;;;;;0.20;0.20;;;11.50;99.90;;;;;;5010249;28;20636;-81
2022/07/29 00:17:38;;;;;;;0.20;0.20;;;11.50;99.90;;;;;;5023972;28;20609;-80
2022/07/29 00:20:04;;;;;;;0.20;0.20;;;11.60;99.90;;;;;;5007761;28;20481;-81
2022/07/29 00:22:30;;;;;;;0.10;0.10;;;11.60;99.90;;;;;;5024174;28;20191;-81
2022/07/29 00:24:55;;;;;;;0.20;0.20;;;11.70;99.90;;;;;;5009206;28;20472;-81
2022/07/29 00:27:21;;;;;;;0.20;0.20;;;11.60;99.90;;;;;;5027627;28;20191;-81
2022/07/29 00:29:47;;;;;;;0.20;0.20;;;11.60;99.90;;;;;;4998293;28;20191;-81
2022/07/29 00:32:12;;;;;;;0.20;0.20;;;11.50;99.90;;;;;;5027531;28;20238;-80
2022/07/29 00:37:22;;;;;;;0.20;0.20;;;11.50;99.90;;;;;;5023010;28;20249;-81
2022/07/29 00:39:48;;;;;;;0.20;0.20;;;11.60;99.90;;;;;;5002988;28;20435;-81
2022/07/29 00:42:13;;;;;;;0.10;0.10;;;11.50;99.90;;;;;;5021356;28;20266;-81
2022/07/29 00:44:40;;;;;;;0.13;0.13;;;11.50;99.90;;;;;;5020763;28;20196;-81
2022/07/29 00:47:07;;;;;;;0.20;0.20;;;11.50;99.90;;;;;;5026512;28;20184;-81
2022/07/29 00:49:34;;;;;;;0.20;0.20;;;11.50;99.90;;;;;;5021380;28;20450;-81
2022/07/29 00:52:04;;;;;;;0.20;0.20;;;11.40;99.90;;;;;;5024263;28;20484;-81
2022/07/29 00:54:30;;;;;;;0.20;0.20;;;11.30;99.90;;;;;;5026753;28;20434;-80
2022/07/29 00:56:59;;;;;;;0.20;0.20;;;11.30;99.90;;;;;;5028581;28;20453;-81
2022/07/29 00:59:28;;;;;;;0.20;0.20;;;11.30;99.90;;;;;;5025245;28;20231;-81
2022/07/29 01:01:54;;;;;;;0.20;0.20;;;11.20;99.90;;;;;;5021798;28;20541;-81
2022/07/29 01:04:21;;;;;;;0.20;0.20;;;11.20;99.90;;;;;;5027298;28;20434;-81
2022/07/29 01:06:48;;;;;;;0.20;0.20;;;11.10;99.90;;;;;;5025544;28;20949;-80
2022/07/29 01:09:14;;;;;;;0.20;0.20;;;11.20;99.90;;;;;;5021930;28;20454;-81
2022/07/29 01:11:41;;;;;;;0.20;0.20;;;11.20;99.90;;;;;;5025347;28;20485;-81
2022/07/29 01:14:09;;;;;;;0.20;0.20;;;11.20;99.90;;;;;;5029768;28;20446;-81
2022/07/29 01:16:45;;;;;;;0.20;0.20;;;11.10;99.90;;;;;;5025520;28;20447;-80
2022/07/29 01:19:26;;;;;;;0.20;0.20;;;11.10;99.90;;;;;;5026729;28;20442;-80
2022/07/29 01:21:57;;;;;;;0.20;0.20;;;11.00;99.90;;;;;;5028901;28;20445;-80
2022/07/29 01:24:58;;;;;;;0.20;0.20;;;10.90;99.90;;;;;;5023513;28;20446;-81
2022/07/29 01:27:52;;;;;;;0.20;0.20;;;10.90;99.90;;;;;;5025746;28;20450;-81
2022/07/29 01:30:18;;;;;;;0.20;0.20;;;11.00;99.90;;;;;;5025135;28;20445;-81
2022/07/29 01:32:47;;;;;;;0.20;0.20;;;11.10;99.90;;;;;;5023930;28;20553;-80
2022/07/29 01:35:20;;;;;;;0.20;0.20;;;11.00;99.90;;;;;;5023814;28;20575;-81
2022/07/29 01:37:51;;;;;;;0.20;0.20;;;11.00;99.90;;;;;;5016898;28;20446;-81
2022/07/29 01:40:24;;;;;;;0.20;0.20;;;11.00;99.90;;;;;;5010737;28;20447;-80
2022/07/29 01:42:54;;;;;;;0.20;0.20;;;11.00;99.90;;;;;;5018965;28;20442;-80
2022/07/29 01:45:38;;;;;;;0.20;0.20;;;10.90;99.90;;;;;;5025045;28;20956;-81
2022/07/29 01:48:19;;;;;;;0.20;0.20;;;10.90;99.90;;;;;;5028820;28;20457;-81
2022/07/29 01:51:07;;;;;;;0.20;0.20;;;10.80;99.90;;;;;;5025361;28;20482;-81
2022/07/29 01:53:36;;;;;;;0.20;0.20;;;10.70;99.90;;;;;;5005009;28;20508;-80
2022/07/29 01:56:03;;;;;;;0.20;0.20;;;10.80;99.90;;;;;;5001792;28;20950;-80
2022/07/29 01:58:31;;;;;;;0.20;0.20;;;10.80;99.90;;;;;;5021159;28;20486;-81
2022/07/29 02:00:59;;;;;;;0.20;0.20;;;10.80;99.90;;;;;;5005592;28;20938;-80
2022/07/29 02:03:26;;;;;;;0.20;0.20;;;10.80;99.90;;;;;;5002949;28;20881;-80
2022/07/29 02:05:55;;;;;;;0.20;0.20;;;10.70;99.90;;;;;;5001542;28;20931;-80
2022/07/29 02:08:21;;;;;;;0.20;0.20;;;10.80;99.90;;;;;;5006650;28;20481;-80
2022/07/29 02:10:48;;;;;;;0.20;0.20;;;10.70;99.90;;;;;;4986682;28;20476;-80
2022/07/29 02:13:16;;;;;;;0.20;0.20;;;10.60;99.90;;;;;;4989789;28;21127;-80
2022/07/29 02:15:43;;;;;;;0.20;0.20;;;10.70;99.90;;;;;;5007044;28;20442;-81
2022/07/29 02:18:16;;;;;;;0.20;0.20;;;10.60;99.90;;;;;;5005375;28;20474;-81
2022/07/29 02:20:46;;;;;;;0.20;0.20;;;10.60;99.90;;;;;;5000807;28;21040;-80
2022/07/29 02:23:19;;;;;;;0.20;0.20;;;10.60;99.90;;;;;;4991792;28;20450;-80
2022/07/29 02:25:46;;;;;;;0.20;0.20;;;10.50;99.90;;;;;;4990022;28;20454;-81
2022/07/29 02:28:12;;;;;;;0.20;0.20;;;10.50;99.90;;;;;;5008172;28;20451;-80
2022/07/29 02:30:41;;;;;;;0.20;0.20;;;10.60;99.90;;;;;;5005410;28;20478;-80
2022/07/29 02:33:09;;;;;;;0.20;0.20;;;10.60;99.90;;;;;;4990830;28;20443;-81
2022/07/29 02:35:36;;;;;;;0.20;0.20;;;10.60;99.90;;;;;;4987105;28;20435;-80
2022/07/29 02:40:48;;;;;;;0.20;0.20;;;10.60;99.90;;;;;;5008538;28;20591;-80
2022/07/29 02:43:14;;;;;;;0.20;0.20;;;10.50;99.90;;;;;;4991560;28;20715;-80
2022/07/29 02:45:40;;;;;;;0.20;0.20;;;10.50;99.90;;;;;;5005363;28;20453;-80
2022/07/29 02:48:12;;;;;;;0.20;0.20;;;10.50;99.90;;;;;;5011562;28;20451;-80
2022/07/29 02:50:48;;;;;;;0.20;0.20;;;10.50;99.90;;;;;;5011835;28;20208;-80
2022/07/29 02:53:22;;;;;;;0.20;0.20;;;10.40;99.90;;;;;;5010285;28;20462;-80
2022/07/29 02:55:59;;;;;;;0.20;0.20;;;10.40;99.90;;;;;;4992857;28;20950;-80
2022/07/29 02:58:28;;;;;;;0.20;0.20;;;10.40;99.90;;;;;;5001654;28;20938;-80
2022/07/29 03:01:01;;;;;;;0.20;0.20;;;10.40;99.90;;;;;;5027959;28;20528;-80
2022/07/29 03:03:32;;;;;;;0.20;0.20;;;10.40;99.90;;;;;;5029550;28;20819;-80
2022/07/29 03:06:00;;;;;;;0.20;0.20;;;10.50;99.90;;;;;;5029283;28;20559;-80
2022/07/29 03:08:27;;;;;;;0.20;0.20;;;10.50;99.90;;;;;;5024279;28;20450;-80
2022/07/29 03:10:53;;;;;;;0.20;0.20;;;10.40;99.90;;;;;;5010075;28;21064;-80
2022/07/29 03:13:19;;;;;;;0.20;0.20;;;10.40;99.90;;;;;;5029825;28;20462;-80
2022/07/29 03:15:46;;;;;;;0.20;0.20;;;10.40;99.90;;;;;;5012436;28;20442;-80
2022/07/29 03:18:12;;;;;;;0.20;0.20;;;10.40;99.90;;;;;;5030128;28;20508;-79
2022/07/29 03:20:38;;;;;;;0.20;0.20;;;10.40;99.90;;;;;;5032745;28;20446;-80
2022/07/29 03:23:04;;;;;;;0.20;0.20;;;10.40;99.90;;;;;;5030219;28;20477;-80
2022/07/29 03:25:30;;;;;;;0.20;0.20;;;10.40;99.90;;;;;;5018628;28;20477;-80
2022/07/29 03:27:56;;;;;;;0.20;0.20;;;10.50;99.90;;;;;;5014309;28;20200;-80
2022/07/29 03:30:22;;;;;;;0.20;0.20;;;10.40;99.90;;;;;;5024463;28;20196;-80
2022/07/29 03:32:48;;;;;;;0.20;0.20;;;10.40;99.90;;;;;;5030832;28;20491;-80
2022/07/29 03:35:14;;;;;;;0.20;0.20;;;10.50;99.90;;;;;;5032127;28;21011;-80
2022/07/29 03:37:39;;;;;;;0.20;0.20;;;10.60;99.90;;;;;;5029971;28;20442;-80
2022/07/29 03:40:08;;;;;;;0.20;0.20;;;10.60;99.90;;;;;;5013050;28;20198;-80
2022/07/29 03:42:37;;;;;;;0.20;0.20;;;10.60;99.90;;;;;;5012884;28;20198;-80
2022/07/29 03:45:07;;;;;;;0.20;0.20;;;10.70;99.90;;;;;;5018825;28;20459;-80
2022/07/29 03:47:35;;;;;;;0.20;0.20;;;10.80;99.90;;;;;;5027411;28;20492;-80
2022/07/29 03:50:06;;;;;;;0.20;0.20;;;10.80;99.90;;;;;;5029750;28;20933;-80
2022/07/29 03:52:32;;;;;;;0.20;0.20;;;10.80;99.90;;;;;;5031139;28;20965;-80
2022/07/29 03:54:57;;;;;;;0.20;0.20;;;10.80;99.90;;;;;;5031640;28;20452;-80
2022/07/29 03:57:27;;;;;;;0.20;0.20;;;10.90;99.90;;;;;;5029361;28;20195;-80
2022/07/29 03:59:53;;;;;;;0.20;0.20;;;11.00;99.90;;;;;;5009009;28;20252;-80
2022/07/29 04:02:19;;;;;;;0.20;0.20;;;11.00;99.90;;;;;;4999384;28;20536;-80
2022/07/29 04:04:45;;;;;;;0.20;0.20;;;11.10;99.90;;;;;;5017186;28;20442;-80
2022/07/29 04:07:15;;;;;;;0.20;0.20;;;11.10;99.90;;;;;;5002382;28;20198;-80
2022/07/29 04:09:41;;;;;;;0.20;0.20;;;11.10;99.90;;;;;;5005973;28;20218;-80
2022/07/29 04:12:07;;;;;;;0.20;0.20;;;11.10;99.90;;;;;;5014174;28;20493;-80
2022/07/29 04:14:34;;;;;;;0.20;0.20;;;11.20;99.90;;;;;;4990020;28;20452;-80
2022/07/29 04:17:04;;;;;;;0.20;0.20;;;11.20;99.90;;;;;;5016651;28;20443;-80
2022/07/29 04:19:30;;;;;;;0.20;0.20;;;11.20;99.90;;;;;;5001245;28;20455;-80
2022/07/29 04:21:58;;;;;;;0.20;0.20;;;11.20;99.90;;;;;;5008662;28;20530;-80
2022/07/29 04:24:23;;;;;;;0.20;0.20;;;11.30;99.90;;;;;;4993920;28;20458;-80
2022/07/29 04:26:49;;;;;;;0.20;0.20;;;11.30;99.90;;;;;;5018626;28;20446;-80
2022/07/29 04:29:14;;;;;;;0.20;0.20;;;11.30;99.90;;;;;;4984292;28;20193;-80
2022/07/29 04:31:40;;;;;;;0.10;0.10;;;11.40;99.90;;;;;;5016037;28;20215;-80
2022/07/29 04:34:06;;;;;;;0.20;0.20;;;11.40;99.90;;;;;;5004904;28;20187;-80
2022/07/29 04:36:32;;;;;;;0.20;0.20;;;11.40;99.90;;;;;;5001943;28;20447;-79
2022/07/29 04:38:58;;;;;;;0.20;0.20;;;11.50;99.90;;;;;;4990392;28;20470;-80
2022/07/29 04:41:23;;;;;;;0.20;0.20;;;11.60;99.90;;;;;;5004847;28;22429;-80
2022/07/29 04:43:49;;;;;;;0.20;0.20;;;11.60;99.90;;;;;;4979416;28;20544;-80
2022/07/29 04:46:14;;;;;;;0.20;0.20;;;11.60;99.90;;;;;;5001527;28;20193;-80
2022/07/29 04:48:40;;;;;;;0.13;0.13;;;11.70;99.90;;;;;;4995598;28;20185;-80
2022/07/29 04:51:05;;;;;;;0.20;0.20;;;11.70;99.90;;;;;;4986159;28;20207;-80
2022/07/29 04:53:31;;;;;;;0.10;0.10;;;11.80;99.90;;;;;;4989916;28;20184;-80
2022/07/29 04:55:56;;;;;;;0.20;0.20;;;11.80;99.90;;;;;;5005581;28;20199;-80
2022/07/29 04:58:23;;;;;;;0.10;0.10;;;11.80;99.90;;;;;;5003668;28;20363;-80
2022/07/29 05:00:49;;;;;;;0.20;0.20;;;11.80;99.90;;;;;;5002124;28;20404;-81
2022/07/29 05:03:14;;;;;;;0.20;0.10;;;11.90;99.90;;;;;;5001472;28;20562;-80
2022/07/29 05:05:40;;;;;;;0.20;0.20;;;12.00;99.90;;;;;;5004347;28;20706;-80
2022/07/29 05:08:06;;;;;;;0.20;0.20;;;12.00;99.90;;;;;;5004936;28;20898;-80
2022/07/29 05:10:37;;;;;;;0.10;0.10;;;12.10;99.90;;;;;;4992111;28;20210;-80
2022/07/29 05:13:02;;;;;;;0.10;0.10;;;12.10;99.90;;;;;;5006606;28;20483;-80
2022/07/29 05:15:28;;;;;;;0.20;0.20;;;12.20;99.90;;;;;;5003773;28;20533;-79
2022/07/29 05:17:53;;;;;;;0.20;0.20;;;12.30;99.90;;;;;;5008594;28;20199;-80
2022/07/29 05:20:25;;;;;;;0.13;0.13;;;12.30;99.90;;;;;;5008400;28;20235;-79
2022/07/29 05:22:51;;;;;;;0.10;0.10;;;12.40;99.90;;;;;;4992234;28;20192;-79
2022/07/29 05:25:16;;;;;;;0.10;0.10;;;12.50;99.90;;;;;;5010597;28;20915;-80
2022/07/29 05:27:42;;;;;;;0.10;0.10;;;12.60;99.90;;;;;;5009703;28;20238;-80
2022/07/29 05:30:08;;;;;;;0.10;0.10;;;12.70;99.90;;;;;;5005072;28;20192;-81
2022/07/29 05:32:33;;;;;;;0.10;0.10;;;12.80;99.90;;;;;;5006808;28;20224;-79
2022/07/29 05:34:59;;;;;;;0.10;0.10;;;12.90;99.90;;;;;;5002316;28;20449;-80
2022/07/29 05:37:24;;;;;;;0.10;0.10;;;13.00;99.90;;;;;;4985600;28;20188;-80
2022/07/29 05:39:50;;;;;;;0.13;0.13;;;13.10;99.90;;;;;;5003598;28;20660;-80
2022/07/29 05:42:15;;;;;;;0.10;0.10;;;13.20;99.90;;;;;;4999804;28;20176;-79
2022/07/29 05:44:41;;;;;;;0.10;0.10;;;13.40;99.90;;;;;;4991210;28;20675;-78
2022/07/29 05:47:06;;;;;;;0.10;0.10;;;13.50;99.90;;;;;;5008762;28;20188;-80
2022/07/29 05:49:32;;;;;;;0.10;0.10;;;13.60;99.90;;;;;;5008617;28;20739;-80
2022/07/29 05:51:58;;;;;;;0.10;0.10;;;13.70;99.90;;;;;;4994809;28;20223;-83
2022/07/29 05:54:24;;;;;;;0.10;0.10;;;13.90;99.90;;;;;;5004167;28;20865;-82
2022/07/29 05:56:49;;;;;;;0.10;0.10;;;14.10;99.90;;;;;;5004758;28;21281;-83
2022/07/29 05:59:15;;;;;;;0.10;0.10;;;14.20;99.90;;;;;;5011821;28;20761;-83
2022/07/29 06:01:41;;;;;;;0.10;0.10;;;14.40;99.90;;;;;;5010629;28;20180;-82
2022/07/29 06:04:07;;;;;;;0.10;0.10;;;14.50;99.90;;;;;;5019587;28;20551;-82
2022/07/29 06:06:34;;;;;;;0.10;0.10;;;14.70;99.90;;;;;;5020937;28;20446;-83
2022/07/29 06:09:00;;;;;;;0.10;0.10;;;14.70;99.90;;;;;;5016336;28;20192;-83
2022/07/29 06:11:26;;;;;;;0.10;0.10;;;14.80;99.90;;;;;;5014132;28;20481;-81
2022/07/29 06:13:52;;;;;;;0.10;0.10;;;14.90;99.90;;;;;;5001931;28;20458;-82
2022/07/29 06:16:18;;;;;;;0.10;0.10;;;15.00;99.90;;;;;;5028077;28;20461;-83
2022/07/29 06:18:44;;;;;;;0.10;0.10;;;15.10;99.90;;;;;;5010701;28;20485;-82
2022/07/29 06:21:10;;;;;;;0.10;0.10;;;15.10;99.90;;;;;;5033127;28;20187;-82
2022/07/29 06:23:39;;;;;;;0.10;0.10;;;15.10;99.90;;;;;;5031106;28;20191;-82
2022/07/29 06:26:05;;;;;;;0.10;0.10;;;15.10;99.90;;;;;;5033403;28;20195;-82
2022/07/29 06:28:32;;;;;;;0.10;0.10;;;15.10;99.90;;;;;;5019984;28;20451;-81
2022/07/29 06:30:58;;;;;;;0.10;0.10;;;15.10;99.90;;;;;;5023889;28;20985;-83
2022/07/29 06:33:23;;;;;;;0.10;0.10;;;15.20;99.90;;;;;;5026328;28;20480;-82
2022/07/29 06:35:49;;;;;;;0.10;0.10;;;15.20;99.90;;;;;;5028751;28;20557;-83
2022/07/29 06:38:16;;;;;;;0.10;0.10;;;15.30;99.90;;;;;;5018492;28;20613;-83
2022/07/29 06:43:33;;;;;;;0.10;0.10;;;15.50;99.90;;;;;;5029671;28;20449;-84
2022/07/29 06:46:08;;;;;;;0.10;0.10;;;15.70;99.90;;;;;;5029042;28;20485;-83
2022/07/29 06:48:38;;;;;;;0.10;0.10;;;15.80;99.90;;;;;;5029623;28;20923;-83
2022/07/29 06:51:04;;;;;;;0.10;0.10;;;15.80;99.90;;;;;;5032629;28;20466;-84
2022/07/29 06:53:31;;;;;;;0.10;0.10;;;16.00;99.90;;;;;;5024624;28;20545;-85
2022/07/29 06:55:58;;;;;;;0.10;0.10;;;16.30;99.90;;;;;;5026079;28;20466;-83
2022/07/29 06:58:25;;;;;;;0.10;0.10;;;16.50;99.90;;;;;;5019043;28;20591;-85
2022/07/29 07:00:50;;;;;;;0.10;0.10;;;16.70;99.90;;;;;;4994443;28;20962;-86
2022/07/29 07:03:17;;;;;;;0.10;0.10;;;16.80;99.90;;;;;;5006843;28;20446;-87
2022/07/29 07:05:44;;;;;;;0.10;0.10;;;17.00;99.90;;;;;;5007000;28;20196;-86
2022/07/29 07:08:09;;;;;;;0.10;0.10;;;17.10;99.90;;;;;;5004254;28;20442;-86
2022/07/29 07:10:35;;;;;;;0.10;0.10;;;17.10;99.90;;;;;;5010310;28;20438;-86
2022/07/29 07:13:01;;;;;;;0.10;0.10;;;17.10;99.90;;;;;;5003670;28;20242;-85
2022/07/29 07:15:28;;;;;;;0.10;0.10;;;17.00;99.90;;;;;;5001950;28;20235;-84
2022/07/29 07:17:53;;;;;;;0.10;0.10;;;17.00;99.90;;;;;;5004501;28;20479;-86
2022/07/29 07:20:19;;;;;;;0.10;0.10;;;17.00;99.90;;;;;;4995700;28;20470;-83
2022/07/29 07:22:45;;;;;;;0.10;0.10;;;16.80;99.90;;;;;;5008451;28;20189;-84
2022/07/29 07:25:11;;;;;;;0.10;0.10;;;16.80;99.90;;;;;;5002137;28;20435;-84
2022/07/29 07:27:37;;;;;;;0.10;0.10;;;16.90;99.90;;;;;;5010702;28;20187;-85
2022/07/29 07:30:06;;;;;;;0.10;0.10;;;17.30;99.90;;;;;;5004431;28;20457;-87
2022/07/29 07:32:33;;;;;;;0.10;0.10;;;17.60;99.90;;;;;;5007293;28;21256;-86
2022/07/29 07:34:58;;;;;;;0.10;0.10;;;17.70;99.90;;;;;;5005345;28;20471;-87
2022/07/29 07:37:24;;;;;;;0.10;0.10;;;17.90;99.90;;;;;;4997111;28;20483;-85
2022/07/29 07:39:51;;;;;;;0.10;0.10;;;18.00;99.90;;;;;;5001162;28;20290;-85
2022/07/29 07:42:17;;;;;;;0.00;0.00;;;18.00;99.90;;;;;;5004739;28;20513;-85
2022/07/29 07:44:42;;;;;;;0.00;0.00;;;18.00;99.90;;;;;;5000268;28;20447;-83
2022/07/29 07:47:08;;;;;;;0.03;0.00;;;18.00;99.90;;;;;;5002625;28;20219;-88
2022/07/29 07:49:33;;;;;;;0.10;0.10;;;18.00;99.90;;;;;;5010685;28;20188;-86
2022/07/29 07:51:59;;;;;;;0.10;0.10;;;18.20;99.90;;;;;;5011751;28;20215;-87
2022/07/29 07:54:24;;;;;;;0.10;0.10;;;18.40;99.90;;;;;;5011423;28;20184;-86
2022/07/29 07:56:50;;;;;;;0.10;0.10;;;18.50;99.90;;;;;;5007338;28;20215;-88
2022/07/29 07:59:16;;;;;;;0.10;0.10;;;18.70;99.90;;;;;;5021654;28;20235;-85
2022/07/29 08:01:42;;;;;;;0.10;0.10;;;18.90;99.90;;;;;;5026799;28;20191;-86
2022/07/29 08:04:08;;;;;;;0.10;0.10;;;19.10;99.90;;;;;;5023722;28;21003;-85
2022/07/29 08:06:35;;;;;;;0.10;0.10;;;19.40;99.90;;;;;;5026500;28;20508;-86
2022/07/29 08:09:02;;;;;;;0.10;0.10;;;19.40;99.90;;;;;;5002000;28;20812;-85
2022/07/29 08:11:28;;;;;;;0.10;0.10;;;19.80;99.90;;;;;;5030914;28;20906;-86
2022/07/29 08:13:54;;;;;;;0.10;0.10;;;19.80;99.90;;;;;;5014657;28;20482;-84
2022/07/29 08:16:19;;;;;;;0.10;0.10;;;20.00;99.90;;;;;;5027405;28;20187;-85
2022/07/29 08:18:45;;;;;;;0.10;0.10;;;20.20;99.90;;;;;;5023853;28;20180;-86
2022/07/29 08:21:12;;;;;;;0.10;0.10;;;20.20;99.90;;;;;;5027121;28;20274;-85
2022/07/29 08:23:45;;;;;;;0.10;0.10;;;20.10;99.90;;;;;;5010993;28;20545;-87
2022/07/29 08:26:12;;;;;;;0.10;0.00;;;19.90;99.90;;;;;;5030010;28;20444;-85
2022/07/29 08:28:38;;;;;;;0.10;0.10;;;19.70;99.90;;;;;;5010147;28;20493;-86
2022/07/29 08:31:04;;;;;;;0.10;0.10;;;19.40;99.90;;;;;;5012679;28;20474;-86
2022/07/29 08:33:30;;;;;;;0.10;0.10;;;19.40;99.90;;;;;;5020535;28;20524;-85
2022/07/29 08:35:55;;;;;;;0.10;0.10;;;19.30;99.90;;;;;;5026160;28;20491;-85
2022/07/29 08:38:21;;;;;;;0.10;0.10;;;19.30;99.90;;;;;;5026574;28;20734;-87
2022/07/29 08:40:46;;;;;;;0.10;0.10;;;19.20;99.90;;;;;;5029826;28;20195;-88
2022/07/29 08:43:12;;;;;;;0.10;0.10;;;19.20;99.90;;;;;;5013328;28;20279;-84
2022/07/29 08:45:44;;;;;;;0.10;0.10;;;19.30;99.90;;;;;;5035842;28;20224;-82
2022/07/29 08:48:12;;;;;;;0.10;0.10;;;19.30;99.90;;;;;;5015293;28;20960;-84
2022/07/29 08:50:38;;;;;;;0.10;0.10;;;19.40;99.90;;;;;;5031528;28;20431;-85
2022/07/29 08:53:04;;;;;;;0.10;0.10;;;19.70;99.90;;;;;;5028712;28;20457;-85
2022/07/29 08:55:30;;;;;;;0.10;0.10;;;19.80;99.90;;;;;;5044589;28;20429;-85
2022/07/29 08:57:57;;;;;;;0.10;0.10;;;20.00;99.90;;;;;;5032845;28;20451;-86
2022/07/29 09:00:24;;;;;;;0.10;0.00;;;20.30;99.90;;;;;;5029298;28;20807;-86
2022/07/29 09:02:56;;;;;;;0.10;0.00;;;20.60;99.90;;;;;;5031219;28;20432;-85
2022/07/29 09:05:23;;;;;;;0.00;0.00;;;21.10;99.90;;;;;;5029854;28;20842;-85
2022/07/29 09:07:50;;;;;;;0.10;0.00;;;21.20;99.90;;;;;;5031783;28;20438;-85
2022/07/29 09:10:15;;;;;;;0.10;0.00;;;21.30;99.90;;;;;;5026899;28;21063;-85
2022/07/29 09:12:41;;;;;;;0.10;0.00;;;21.30;99.90;;;;;;5039092;28;20509;-83
2022/07/29 09:15:07;;;;;;;0.10;0.00;;;21.30;99.90;;;;;;5027849;28;20270;-83
2022/07/29 09:17:47;;;;;;;0.10;0.10;;;21.60;99.90;;;;;;5025162;28;20196;-86
2022/07/29 09:20:19;;;;;;;0.10;0.00;;;21.70;99.90;;;;;;5026446;28;20446;-85
2022/07/29 09:22:53;;;;;;;0.10;0.00;;;21.60;99.90;;;;;;5026051;28;20439;-86
2022/07/29 09:25:38;;;;;;;0.10;0.00;;;21.50;99.90;;;;;;5019680;28;21034;-84
2022/07/29 09:28:16;;;;;;;0.10;0.10;;;21.50;99.90;;;;;;5025121;28;20434;-86
2022/07/29 09:30:52;;;;;;;0.10;0.00;;;21.60;99.90;;;;;;5019983;28;20429;-86
2022/07/29 09:33:18;;;;;;;0.10;0.00;;;21.70;99.90;;;;;;5005931;28;20453;-85
2022/07/29 09:35:43;;;;;;;0.10;0.00;;;21.70;99.90;;;;;;5019529;28;20442;-84
2022/07/29 09:38:13;;;;;;;0.10;0.00;;;21.80;99.90;;;;;;4996396;28;20461;-85
2022/07/29 09:40:39;;;;;;;0.10;0.00;;;21.70;99.90;;;;;;5017981;28;20191;-84
2022/07/29 09:43:12;;;;;;;0.10;0.00;;;21.90;99.90;;;;;;5027614;28;20445;-83
2022/07/29 09:45:38;;;;;;;0.10;0.00;;;21.80;99.90;;;;;;5033310;28;20442;-84
2022/07/29 09:48:17;;;;;;;0.10;0.00;;;21.90;99.90;;;;;;5023506;28;20500;-83
2022/07/29 09:50:44;;;;;;;0.10;0.10;;;22.20;99.90;;;;;;5007883;28;20475;-84
2022/07/29 09:53:10;;;;;;;0.10;0.00;;;22.70;99.90;;;;;;5026068;28;20479;-84
2022/07/29 09:55:51;;;;;;;0.10;0.00;;;22.40;99.90;;;;;;5012287;28;20954;-85
2022/07/29 09:58:18;;;;;;;0.10;0.00;;;22.40;99.90;;;;;;5010485;28;20479;-83
2022/07/29 10:00:45;;;;;;;0.10;0.00;;;22.50;99.90;;;;;;5010455;28;20439;-85
2022/07/29 10:03:11;;;;;;;0.10;0.00;;;22.20;99.90;;;;;;5008205;28;20547;-84
2022/07/29 10:05:37;;;;;;;0.10;0.00;;;21.90;99.90;;;;;;5009163;28;20439;-84
2022/07/29 10:08:03;;;;;;;0.10;0.00;;;21.60;99.90;;;;;;5005239;28;20439;-84
2022/07/29 10:10:34;;;;;;;0.10;0.00;;;21.80;99.90;;;;;;5007849;28;20211;-84
2022/07/29 10:13:03;;;;;;;0.10;0.00;;;22.10;99.90;;;;;;5011470;28;20522;-84
2022/07/29 10:15:32;;;;;;;0.10;0.00;;;22.40;99.90;;;;;;5009764;28;20477;-83
2022/07/29 10:17:59;;;;;;;0.10;0.00;;;22.50;99.90;;;;;;5013222;28;20455;-86
2022/07/29 10:20:26;;;;;;;0.10;0.00;;;22.40;99.90;;;;;;5010779;28;20545;-85
2022/07/29 10:22:52;;;;;;;0.10;0.00;;;22.40;99.90;;;;;;5011312;28;20482;-85
2022/07/29 10:25:19;;;;;;;0.10;0.00;;;22.50;99.90;;;;;;5008945;28;20447;-89
2022/07/29 10:27:47;;;;;;;0.10;0.00;;;22.60;99.90;;;;;;5005106;28;20454;-92
2022/07/29 10:30:14;;;;;;;0.10;0.00;;;22.60;99.90;;;;;;5004730;28;20446;-90
2022/07/29 10:33:07;;;;;;;0.10;0.00;;;22.60;99.90;;;;;;5002527;28;20665;-88
2022/07/29 10:35:54;;;;;;;0.10;0.00;;;22.70;99.90;;;;;;5004523;28;20852;-88
2022/07/29 10:38:42;;;;;;;0.10;0.00;;;23.20;99.90;;;;;;5011095;28;20442;-90
2022/07/29 10:41:42;;;;;;;0.10;0.00;;;23.50;99.90;;;;;;5009812;28;20503;-87
2022/07/29 10:44:22;;;;;;;0.10;0.00;;;24.20;99.90;;;;;;5010418;28;20462;-91
2022/07/29 10:46:48;;;;;;;0.10;0.00;;;25.00;99.90;;;;;;5005358;28;20447;-88
2022/07/29 10:49:26;;;;;;;0.10;0.00;;;26.30;99.90;;;;;;5008771;28;20530;-89
2022/07/29 10:52:06;;;;;;;0.10;0.00;;;26.90;99.90;;;;;;5011222;28;20482;-88
2022/07/29 10:54:35;;;;;;;0.10;0.00;;;27.10;99.90;;;;;;5009757;28;20465;-85
2022/07/29 10:57:20;;;;;;;0.10;0.00;;;27.20;99.90;;;;;;5010276;28;20537;-85
2022/07/29 11:00:14;;;;;;;0.10;0.00;;;27.20;99.90;;;;;;5022494;28;21023;-85
2022/07/29 11:02:42;;;;;;;0.10;0.00;;;27.20;99.90;;;;;;5004400;28;20442;-90
2022/07/29 11:05:13;;;;;;;0.10;0.00;;;27.10;99.90;;;;;;5005512;28;20474;-86
2022/07/29 11:07:59;;;;;;;0.10;0.00;;;27.60;99.90;;;;;;5030243;28;21264;-87
2022/07/29 11:10:25;;;;;;;0.00;0.00;;;27.10;99.90;;;;;;5023264;28;20588;-88
2022/07/29 11:12:51;;;;;;;0.10;0.00;;;27.10;99.90;;;;;;5028191;28;21076;-85
2022/07/29 11:15:21;;;;;;;0.10;0.00;;;26.80;99.90;;;;;;5019877;28;20177;-85
2022/07/29 11:18:06;;;;;;;0.10;0.00;;;26.00;99.90;;;;;;5025637;28;20558;-85
2022/07/29 11:20:48;;;;;;;0.10;0.00;;;26.00;99.90;;;;;;5012061;28;20461;-85
2022/07/29 11:23:31;;;;;;;0.10;0.00;;;26.10;99.90;;;;;;5025319;28;20453;-88
2022/07/29 11:26:09;;;;;;;0.10;0.00;;;25.80;99.90;;;;;;5031961;28;20422;-85
2022/07/29 11:29:00;;;;;;;0.10;0.00;;;25.30;99.90;;;;;;5012032;28;20446;-86
2022/07/29 11:31:38;;;;;;;0.10;0.00;;;25.10;99.90;;;;;;5025335;28;20576;-86
2022/07/29 11:34:19;;;;;;;0.10;0.00;;;25.00;99.90;;;;;;5009815;28;20870;-85
2022/07/29 11:37:06;;;;;;;0.10;0.00;;;24.80;99.90;;;;;;5022314;28;20461;-89
2022/07/29 11:39:32;;;;;;;0.10;0.00;;;24.80;99.90;;;;;;5028925;28;20441;-90
2022/07/29 11:42:16;;;;;;;0.10;0.00;;;24.60;99.90;;;;;;5018281;28;20447;-89
2022/07/29 11:44:58;;;;;;;0.10;0.00;;;24.50;99.90;;;;;;5019896;28;20442;-88
2022/07/29 11:47:24;;;;;;;0.10;0.00;;;24.70;99.90;;;;;;5006934;28;20453;-90
2022/07/29 11:49:51;;;;;;;0.10;0.00;;;24.30;99.90;;;;;;5014369;28;20459;-85
2022/07/29 11:52:18;;;;;;;0.10;0.00;;;24.60;99.90;;;;;;5026504;28;20519;-89
2022/07/29 11:54:46;;;;;;;0.10;0.00;;;24.60;99.90;;;;;;5030194;28;20450;-87
2022/07/29 11:57:13;;;;;;;0.10;0.00;;;25.10;99.90;;;;;;5032302;28;20457;-91
2022/07/29 11:59:41;;;;;;;0.10;0.00;;;25.70;99.90;;;;;;5021906;28;21076;-92
2022/07/29 12:02:08;;;;;;;0.10;0.00;;;26.10;99.90;;;;;;5028958;28;20525;-87
2022/07/29 12:04:34;;;;;;;0.10;0.00;;;26.50;99.90;;;;;;5026219;28;20438;-90
2022/07/29 12:07:00;;;;;;;0.10;0.00;;;26.20;99.90;;;;;;5016129;28;20443;-89
2022/07/29 12:09:26;;;;;;;0.10;0.00;;;25.80;99.90;;;;;;5009515;28;20448;-91
2022/07/29 12:11:58;;;;;;;0.10;0.00;;;26.00;99.90;;;;;;5028760;28;20871;-87
2022/07/29 12:14:32;;;;;;;0.10;0.00;;;26.00;99.90;;;;;;5028992;28;20192;-85
2022/07/29 12:16:59;;;;;;;0.10;0.00;;;26.00;99.90;;;;;;5024457;28;20541;-86
2022/07/29 12:19:26;;;;;;;0.10;0.00;;;25.70;99.90;;;;;;5027344;28;20442;-87
2022/07/29 12:21:59;;;;;;;0.10;0.00;;;25.70;99.90;;;;;;5021409;28;20458;-86
2022/07/29 12:24:25;;;;;;;0.10;0.00;;;25.60;99.90;;;;;;5024480;28;20463;-86
2022/07/29 12:26:55;;;;;;;0.10;0.00;;;25.10;99.90;;;;;;5021041;28;21005;-87
2022/07/29 12:29:21;;;;;;;0.10;0.00;;;25.30;99.90;;;;;;5015451;28;20191;-89
2022/07/29 12:31:53;;;;;;;0.10;0.00;;;25.90;99.90;;;;;;5003903;28;20502;-87
2022/07/29 12:34:22;;;;;;;0.10;0.00;;;25.80;99.90;;;;;;5021571;28;20497;-87
2022/07/29 12:36:48;;;;;;;0.10;0.00;;;25.40;99.90;;;;;;5024224;28;20511;-86
2022/07/29 12:39:16;;;;;;;0.10;0.00;;;25.10;99.90;;;;;;5025072;28;20454;-87
2022/07/29 12:41:42;;;;;;;0.10;0.00;;;25.30;99.90;;;;;;5018906;28;20869;-87
2022/07/29 12:44:08;;;;;;;0.10;0.00;;;25.40;99.90;;;;;;5017446;28;20490;-87
2022/07/29 12:46:34;;;;;;;0.10;0.00;;;25.30;99.90;;;;;;5022358;28;20191;-86
2022/07/29 12:48:59;;;;;;;0.10;0.00;;;25.20;99.90;;;;;;5014151;28;20200;-87
2022/07/29 12:51:33;;;;;;;0.10;0.00;;;25.30;99.90;;;;;;5026141;28;20203;-87
2022/07/29 12:54:13;;;;;;;0.10;0.00;;;25.50;99.90;;;;;;5023536;28;20188;-89
2022/07/29 12:56:40;;;;;;;0.10;0.00;;;25.00;99.90;;;;;;5020927;28;20541;-92
2022/07/29 12:59:21;;;;;;;0.10;0.00;;;25.00;99.90;;;;;;5014807;28;20963;-85
2022/07/29 13:01:48;;;;;;;0.10;0.00;;;25.30;99.90;;;;;;5004342;28;22101;-86
2022/07/29 13:04:31;;;;;;;0.10;0.00;;;25.30;99.90;;;;;;4989857;28;20442;-86